createdAt,value
2018-02-02T00:02:10.396Z,16.20
2018-02-02T00:04:37.527Z,16.10
2018-02-02T00:07:05.588Z,16.10
2018-02-02T00:09:33.656Z,16.10
2018-02-02T00:12:01.569Z,16.20
2018-02-02T00:14:29.477Z,16.20
2018-02-02T00:16:56.652Z,16.20
2018-02-02T00:19:23.779Z,16.20
2018-02-02T00:21:51.760Z,16.10
2018-02-02T00:24:19.677Z,16.10
2018-02-02T00:26:46.856Z,16.20
2018-02-02T00:29:13.988Z,16.20
2018-02-02T00:31:41.891Z,16.40
2018-02-02T00:34:09.913Z,16.40
2018-02-02T00:36:37.912Z,16.50
2018-02-02T00:39:05.811Z,16.40
2018-02-02T00:41:32.945Z,16.40
2018-02-02T00:44:00.093Z,16.40
2018-02-02T00:46:28.056Z,16.40
2018-02-02T00:48:55.984Z,16.40
2018-02-02T00:51:30.516Z,16.30
2018-02-02T00:53:57.694Z,16.30
2018-02-02T00:56:25.594Z,16.30
2018-02-02T00:58:52.720Z,16.30
2018-02-02T01:01:19.853Z,16.30
2018-02-02T01:03:47.748Z,16.30
2018-02-02T01:06:14.910Z,16.30
2018-02-02T01:08:42.136Z,16.30
2018-02-02T01:11:10.108Z,16.30
2018-02-02T01:13:37.249Z,16.30
2018-02-02T01:16:06.052Z,16.20
2018-02-02T01:18:34.018Z,16.20
2018-02-02T01:21:01.917Z,16.30
2018-02-02T01:23:29.983Z,16.30
2018-02-02T01:25:57.120Z,16.30
2018-02-02T01:28:24.297Z,16.30
2018-02-02T01:30:51.429Z,16.30
2018-02-02T01:33:18.564Z,16.20
2018-02-02T01:35:46.536Z,16.20
2018-02-02T01:38:14.432Z,16.20
2018-02-02T01:40:41.564Z,16.20
2018-02-02T01:43:08.733Z,16.30
2018-02-02T01:45:35.864Z,16.30
2018-02-02T01:48:08.784Z,16.20
2018-02-02T01:50:35.920Z,16.20
2018-02-02T01:53:03.049Z,16.20
2018-02-02T01:55:30.222Z,16.20
2018-02-02T01:57:57.351Z,16.20
2018-02-02T02:00:24.476Z,16.20
2018-02-02T02:02:52.377Z,16.20
2018-02-02T02:05:19.616Z,16.20
2018-02-02T02:07:47.521Z,16.20
2018-02-02T02:10:14.688Z,16.20
2018-02-02T02:12:41.824Z,16.20
2018-02-02T02:15:08.968Z,16.20
2018-02-02T02:17:36.100Z,16.30
2018-02-02T02:20:03.236Z,16.20
2018-02-02T02:22:31.209Z,16.20
2018-02-02T02:24:59.208Z,16.20
2018-02-02T02:27:26.341Z,16.20
2018-02-02T02:29:53.468Z,16.20
2018-02-02T02:32:21.385Z,16.30
2018-02-02T02:34:48.517Z,16.30
2018-02-02T02:37:15.690Z,16.40
2018-02-02T02:39:43.620Z,16.40
2018-02-02T02:42:11.516Z,16.40
2018-02-02T02:44:38.752Z,16.40
2018-02-02T02:47:06.713Z,16.40
2018-02-02T02:49:34.648Z,16.30
2018-02-02T02:52:01.800Z,16.30
2018-02-02T02:54:28.961Z,16.30
2018-02-02T02:56:56.109Z,16.30
2018-02-02T02:59:24.050Z,16.30
2018-02-02T03:01:51.188Z,16.30
2018-02-02T03:04:18.333Z,16.30
2018-02-02T03:06:45.504Z,16.20
2018-02-02T03:09:12.777Z,16.20
2018-02-02T03:11:39.945Z,16.20
2018-02-02T03:14:07.841Z,16.20
2018-02-02T03:16:34.992Z,16.20
2018-02-02T03:19:02.178Z,16.20
2018-02-02T03:21:29.316Z,16.20
2018-02-02T03:23:56.450Z,16.20
2018-02-02T03:26:23.584Z,16.20
2018-02-02T03:28:51.528Z,16.20
2018-02-02T03:31:18.704Z,16.20
2018-02-02T03:33:46.677Z,16.20
2018-02-02T03:36:13.925Z,16.20
2018-02-02T03:38:41.905Z,16.10
2018-02-02T03:41:09.155Z,16.10
2018-02-02T03:43:36.304Z,16.20
2018-02-02T03:46:04.278Z,16.20
2018-02-02T03:48:31.425Z,16.20
2018-02-02T03:50:59.325Z,16.20
2018-02-02T03:53:26.457Z,16.20
2018-02-02T03:55:53.592Z,16.20
2018-02-02T03:58:20.848Z,16.10
2018-02-02T04:00:48.816Z,16.20
2018-02-02T04:03:16.752Z,16.20
2018-02-02T04:05:43.884Z,16.20
2018-02-02T04:08:11.056Z,16.10
2018-02-02T04:10:38.240Z,16.10
2018-02-02T04:13:06.208Z,16.10
2018-02-02T04:15:34.109Z,16.10
2018-02-02T04:18:01.329Z,16.10
2018-02-02T04:20:29.225Z,16.20
2018-02-02T04:22:56.393Z,16.20
2018-02-02T04:25:23.536Z,16.20
2018-02-02T04:27:50.708Z,16.10
2018-02-02T04:30:17.846Z,16.10
2018-02-02T04:32:45.057Z,16.10
2018-02-02T04:35:12.188Z,16.10
2018-02-02T04:37:40.124Z,16.10
2018-02-02T04:40:07.260Z,16.10
2018-02-02T04:42:34.391Z,16.20
2018-02-02T04:45:01.633Z,16.30
2018-02-02T04:47:28.764Z,16.40
2018-02-02T04:49:56.751Z,16.40
2018-02-02T04:52:23.900Z,16.40
2018-02-02T04:54:51.794Z,16.30
2018-02-02T04:57:18.925Z,16.30
2018-02-02T04:59:46.101Z,16.20
2018-02-02T05:02:13.232Z,16.30
2018-02-02T05:04:40.476Z,16.20
2018-02-02T05:07:08.377Z,16.30
2018-02-02T05:09:35.516Z,16.20
2018-02-02T05:12:02.676Z,16.30
2018-02-02T05:14:29.842Z,16.20
2018-02-02T05:16:57.009Z,16.20
2018-02-02T05:19:24.144Z,16.20
2018-02-02T05:21:51.316Z,16.20
2018-02-02T05:24:18.452Z,16.20
2018-02-02T05:26:45.580Z,16.10
2018-02-02T05:29:12.716Z,16.10
2018-02-02T05:31:39.857Z,16.10
2018-02-02T05:34:07.029Z,16.10
2018-02-02T05:36:34.161Z,16.10
2018-02-02T05:39:01.305Z,16.20
2018-02-02T05:41:29.200Z,16.20
2018-02-02T05:43:56.414Z,16.20
2018-02-02T05:46:23.536Z,16.20
2018-02-02T05:48:50.674Z,16.20
2018-02-02T05:51:17.823Z,16.20
2018-02-02T05:53:44.954Z,16.20
2018-02-02T05:56:12.091Z,16.20
2018-02-02T05:58:39.262Z,16.20
2018-02-02T06:01:06.393Z,16.20
2018-02-02T06:03:33.564Z,16.10
2018-02-02T06:06:00.704Z,16.10
2018-02-02T06:08:27.836Z,16.00
2018-02-02T06:10:54.972Z,16.00
2018-02-02T06:13:22.866Z,16.20
2018-02-02T06:15:50.001Z,16.20
2018-02-02T06:18:17.936Z,16.40
2018-02-02T06:20:45.069Z,16.40
2018-02-02T06:23:12.200Z,16.40
2018-02-02T06:25:39.333Z,16.50
2018-02-02T06:28:06.478Z,16.50
2018-02-02T06:30:33.604Z,16.40
2018-02-02T06:33:01.517Z,16.40
2018-02-02T06:35:28.746Z,16.30
2018-02-02T06:37:55.882Z,16.30
2018-02-02T06:40:23.783Z,16.30
2018-02-02T06:42:50.913Z,16.20
2018-02-02T06:45:18.815Z,16.20
2018-02-02T06:47:45.947Z,16.20
2018-02-02T06:50:13.084Z,16.20
2018-02-02T06:52:40.215Z,16.20
2018-02-02T06:55:09.129Z,16.10
2018-02-02T06:57:36.277Z,16.10
2018-02-02T07:00:04.174Z,16.20
2018-02-02T07:02:31.304Z,16.20
2018-02-02T07:04:58.437Z,16.20
2018-02-02T07:07:26.330Z,16.20
2018-02-02T07:09:53.493Z,16.20
2018-02-02T07:12:20.673Z,16.10
2018-02-02T07:14:47.800Z,16.10
2018-02-02T07:17:15.041Z,16.00
2018-02-02T07:19:42.655Z,16.10
2018-02-02T07:22:09.833Z,16.00
2018-02-02T07:24:37.807Z,16.00
2018-02-02T07:27:05.777Z,16.00
2018-02-02T07:29:32.954Z,16.00
2018-02-02T07:32:00.181Z,16.00
2018-02-02T07:34:27.344Z,16.00
2018-02-02T07:36:54.485Z,16.10
2018-02-02T07:39:21.615Z,16.20
2018-02-02T07:41:49.601Z,16.40
2018-02-02T07:44:17.577Z,16.50
2018-02-02T07:46:44.726Z,16.50
2018-02-02T07:49:11.977Z,16.50
2018-02-02T07:51:39.105Z,16.50
2018-02-02T07:54:06.285Z,16.40
2018-02-02T07:56:33.413Z,16.40
2018-02-02T07:59:01.303Z,16.30
2018-02-02T08:01:28.433Z,16.30
2018-02-02T08:03:56.337Z,16.30
2018-02-02T08:06:23.473Z,16.30
2018-02-02T08:08:50.622Z,16.20
2018-02-02T08:11:17.769Z,16.20
2018-02-02T08:13:44.897Z,16.20
2018-02-02T08:16:12.883Z,16.20
2018-02-02T08:18:40.781Z,16.20
2018-02-02T08:21:07.913Z,16.20
2018-02-02T08:23:35.052Z,16.20
2018-02-02T08:26:02.956Z,16.20
2018-02-02T08:28:30.132Z,16.20
2018-02-02T08:30:57.264Z,16.20
2018-02-02T08:33:24.405Z,16.20
2018-02-02T08:35:51.534Z,16.10
2018-02-02T08:38:18.788Z,16.20
2018-02-02T08:40:45.922Z,16.20
2018-02-02T08:43:13.828Z,16.50
2018-02-02T08:45:40.964Z,16.40
2018-02-02T08:48:08.102Z,16.60
2018-02-02T08:50:36.076Z,16.60
2018-02-02T08:53:03.213Z,16.60
2018-02-02T08:55:31.116Z,16.50
2018-02-02T08:57:58.810Z,16.50
2018-02-02T09:00:25.952Z,16.40
2018-02-02T09:02:53.085Z,16.40
2018-02-02T09:05:20.220Z,16.40
2018-02-02T09:07:47.349Z,16.40
2018-02-02T09:10:15.264Z,16.20
2018-02-02T09:12:42.395Z,16.20
2018-02-02T09:15:09.564Z,15.60
2018-02-02T09:17:36.693Z,15.20
2018-02-02T09:20:03.829Z,15.00
2018-02-02T09:22:31.732Z,14.60
2018-02-02T09:24:58.864Z,14.60
2018-02-02T09:27:25.625Z,14.50
2018-02-02T09:29:52.822Z,14.50
2018-02-02T09:32:20.728Z,14.50
2018-02-02T09:34:47.910Z,14.50
2018-02-02T09:37:15.085Z,14.50
2018-02-02T09:39:42.222Z,14.60
2018-02-02T09:42:09.393Z,14.60
2018-02-02T09:44:36.529Z,14.50
2018-02-02T09:47:03.698Z,14.50
2018-02-02T09:49:30.940Z,14.50
2018-02-02T09:51:58.113Z,14.50
2018-02-02T09:54:26.061Z,14.60
2018-02-02T09:56:53.193Z,14.50
2018-02-02T09:59:20.401Z,14.60
2018-02-02T10:01:47.529Z,14.60
2018-02-02T10:04:15.428Z,14.60
2018-02-02T10:06:42.564Z,14.60
2018-02-02T10:09:10.460Z,14.60
2018-02-02T10:11:37.593Z,14.60
2018-02-02T10:14:04.773Z,14.60
2018-02-02T10:16:31.938Z,14.50
2018-02-02T10:18:59.073Z,14.50
2018-02-02T10:21:26.294Z,14.50
2018-02-02T10:23:53.480Z,14.60
2018-02-02T10:26:20.614Z,14.60
2018-02-02T10:28:47.788Z,14.60
2018-02-02T10:31:14.933Z,14.60
2018-02-02T10:33:42.081Z,14.70
2018-02-02T10:36:09.216Z,14.70
2018-02-02T10:38:36.352Z,14.90
2018-02-02T10:41:03.491Z,15.00
2018-02-02T10:43:31.397Z,14.80
2018-02-02T10:45:58.533Z,14.80
2018-02-02T10:48:25.673Z,14.70
2018-02-02T10:50:52.809Z,14.80
2018-02-02T10:53:20.723Z,14.80
2018-02-02T10:55:47.864Z,14.80
2018-02-02T10:58:16.558Z,15.00
2018-02-02T11:00:49.546Z,14.90
2018-02-02T11:03:17.483Z,14.80
2018-02-02T11:05:45.385Z,14.70
2018-02-02T11:08:12.520Z,14.70
2018-02-02T11:10:39.728Z,14.70
2018-02-02T11:13:06.864Z,14.70
2018-02-02T11:15:34.005Z,14.60
2018-02-02T11:18:01.140Z,14.60
2018-02-02T11:20:28.308Z,14.60
2018-02-02T11:22:55.447Z,14.70
2018-02-02T11:25:22.593Z,14.60
2018-02-02T11:27:49.782Z,14.50
2018-02-02T11:30:16.924Z,14.50
2018-02-02T11:32:44.101Z,14.50
2018-02-02T11:35:12.106Z,14.50
2018-02-02T11:37:39.985Z,14.50
2018-02-02T11:40:07.132Z,14.50
2018-02-02T11:42:34.297Z,14.50
2018-02-02T11:45:01.754Z,14.40
2018-02-02T11:47:29.707Z,14.40
2018-02-02T11:49:56.837Z,14.30
2018-02-02T11:52:24.004Z,14.30
2018-02-02T11:54:51.129Z,14.20
2018-02-02T11:57:19.081Z,14.30
2018-02-02T11:59:46.297Z,14.30
2018-02-02T12:02:13.437Z,14.30
2018-02-02T12:04:40.570Z,14.40
2018-02-02T12:07:07.701Z,14.40
2018-02-02T12:09:35.654Z,14.40
2018-02-02T12:12:02.780Z,14.40
2018-02-02T12:14:29.959Z,14.40
2018-02-02T12:16:57.100Z,14.30
2018-02-02T12:19:24.238Z,14.40
2018-02-02T12:21:57.240Z,14.40
2018-02-02T12:24:30.184Z,14.40
2018-02-02T12:27:03.001Z,14.30
2018-02-02T12:29:35.900Z,14.30
2018-02-02T12:32:17.940Z,14.30
2018-02-02T12:34:45.616Z,14.30
2018-02-02T12:37:12.744Z,14.40
2018-02-02T12:39:40.649Z,14.40
2018-02-02T12:42:07.789Z,14.40
2018-02-02T12:44:34.945Z,14.50
2018-02-02T12:47:02.123Z,14.50
2018-02-02T12:49:30.185Z,14.60
2018-02-02T12:51:57.323Z,14.60
2018-02-02T12:54:24.476Z,14.50
2018-02-02T12:56:51.605Z,14.50
2018-02-02T12:59:18.737Z,14.50
2018-02-02T13:01:46.641Z,14.40
2018-02-02T13:04:13.809Z,14.40
2018-02-02T13:06:40.943Z,14.40
2018-02-02T13:09:08.135Z,14.30
2018-02-02T13:11:36.185Z,14.40
2018-02-02T13:14:03.326Z,14.40
2018-02-02T13:16:30.478Z,14.30
2018-02-02T13:18:57.615Z,14.20
2018-02-02T13:21:24.753Z,14.20
2018-02-02T13:23:51.885Z,14.20
2018-02-02T13:26:19.816Z,14.30
2018-02-02T13:28:46.944Z,14.20
2018-02-02T13:31:14.113Z,14.20
2018-02-02T13:33:41.240Z,14.20
2018-02-02T13:36:08.400Z,14.40
2018-02-02T13:38:35.538Z,14.60
2018-02-02T13:41:02.708Z,14.90
2018-02-02T13:43:29.841Z,15.00
2018-02-02T13:45:57.005Z,15.10
2018-02-02T13:48:24.163Z,15.30
2018-02-02T13:50:51.306Z,15.30
2018-02-02T13:53:18.442Z,15.30
2018-02-02T13:55:45.605Z,15.40
2018-02-02T13:58:12.736Z,15.40
2018-02-02T14:00:39.869Z,15.40
2018-02-02T14:03:07.774Z,15.40
2018-02-02T14:05:34.928Z,15.40
2018-02-02T14:08:02.064Z,15.50
2018-02-02T14:10:29.197Z,15.50
2018-02-02T14:12:57.094Z,15.50
2018-02-02T14:15:24.232Z,15.50
2018-02-02T14:17:51.365Z,15.50
2018-02-02T14:20:18.499Z,15.50
2018-02-02T14:22:46.410Z,15.40
2018-02-02T14:25:13.549Z,15.50
2018-02-02T14:27:40.684Z,15.50
2018-02-02T14:30:08.582Z,15.50
2018-02-02T14:32:35.735Z,15.50
2018-02-02T14:35:02.878Z,15.60
2018-02-02T14:37:30.012Z,15.70
2018-02-02T14:39:57.185Z,15.80
2018-02-02T14:42:24.320Z,15.80
2018-02-02T14:44:51.452Z,15.80
2018-02-02T14:47:19.357Z,15.80
2018-02-02T14:49:46.502Z,15.80
2018-02-02T14:52:13.640Z,15.70
2018-02-02T14:54:40.774Z,15.80
2018-02-02T14:57:08.673Z,15.70
2018-02-02T14:59:35.872Z,15.70
2018-02-02T15:02:03.009Z,15.60
2018-02-02T15:04:30.144Z,15.60
2018-02-02T15:06:57.424Z,15.60
2018-02-02T15:09:24.559Z,15.60
2018-02-02T15:11:51.697Z,15.70
2018-02-02T15:14:18.845Z,15.70
2018-02-02T15:16:45.985Z,15.70
2018-02-02T15:19:13.153Z,15.70
2018-02-02T15:21:40.290Z,15.60
2018-02-02T15:24:07.473Z,15.60
2018-02-02T15:26:34.612Z,15.60
2018-02-02T15:29:01.741Z,15.60
2018-02-02T15:31:28.873Z,15.70
2018-02-02T15:33:56.005Z,15.60
2018-02-02T15:36:23.908Z,15.60
2018-02-02T15:38:51.047Z,15.60
2018-02-02T15:41:18.221Z,15.60
2018-02-02T15:43:45.364Z,15.60
2018-02-02T15:46:12.499Z,15.60
2018-02-02T15:48:39.637Z,15.70
2018-02-02T15:51:07.534Z,15.70
2018-02-02T15:53:34.728Z,15.70
2018-02-02T15:56:01.865Z,15.70
2018-02-02T15:58:28.997Z,15.70
2018-02-02T16:00:56.137Z,15.70
2018-02-02T16:03:23.325Z,15.70
2018-02-02T16:05:50.458Z,15.70
2018-02-02T16:08:17.593Z,15.70
2018-02-02T16:10:44.749Z,15.70
2018-02-02T16:13:11.885Z,15.70
2018-02-02T16:15:39.020Z,15.80
2018-02-02T16:18:06.201Z,15.80
2018-02-02T16:20:33.336Z,15.80
2018-02-02T16:23:00.471Z,15.80
2018-02-02T16:25:27.659Z,15.80
2018-02-02T16:27:54.790Z,15.80
2018-02-02T16:30:22.872Z,15.80
2018-02-02T16:32:50.064Z,15.80
2018-02-02T16:35:17.302Z,15.80
2018-02-02T16:37:44.440Z,15.90
2018-02-02T16:40:11.580Z,16.00
2018-02-02T16:42:38.732Z,16.00
2018-02-02T16:45:05.871Z,16.10
2018-02-02T16:47:33.017Z,16.10
2018-02-02T16:50:00.188Z,16.00
2018-02-02T16:52:27.332Z,15.90
2018-02-02T16:54:54.533Z,15.90
2018-02-02T16:57:22.444Z,15.90
2018-02-02T16:59:49.613Z,15.90
2018-02-02T17:02:16.755Z,16.00
2018-02-02T17:04:43.886Z,16.00
2018-02-02T17:07:11.057Z,16.00
2018-02-02T17:09:38.200Z,16.10
2018-02-02T17:12:05.338Z,16.10
2018-02-02T17:14:32.561Z,16.10
2018-02-02T17:17:00.506Z,16.10
2018-02-02T17:19:27.645Z,16.10
2018-02-02T17:21:54.779Z,16.00
2018-02-02T17:24:21.924Z,16.00
2018-02-02T17:26:49.124Z,16.00
2018-02-02T17:29:16.292Z,16.00
2018-02-02T17:31:44.211Z,16.00
2018-02-02T17:34:11.376Z,16.00
2018-02-02T17:36:39.288Z,15.90
2018-02-02T17:39:07.233Z,15.90
2018-02-02T17:41:34.381Z,15.90
2018-02-02T17:44:01.513Z,16.00
2018-02-02T17:46:28.650Z,16.00
2018-02-02T17:48:55.786Z,16.00
2018-02-02T17:51:22.924Z,16.00
2018-02-02T17:53:50.077Z,16.00
2018-02-02T17:56:17.247Z,16.00
2018-02-02T17:58:44.374Z,16.00
2018-02-02T18:01:16.406Z,16.00
2018-02-02T18:03:43.629Z,16.10
2018-02-02T18:06:11.708Z,16.10
2018-02-02T18:08:38.884Z,16.00
2018-02-02T18:11:06.018Z,16.00
2018-02-02T18:13:33.206Z,16.00
2018-02-02T18:16:01.109Z,15.90
2018-02-02T18:18:28.241Z,15.90
2018-02-02T18:20:55.373Z,15.90
2018-02-02T18:23:23.304Z,15.80
2018-02-02T18:25:50.477Z,15.80
2018-02-02T18:28:17.609Z,15.80
2018-02-02T18:30:44.801Z,16.00
2018-02-02T18:33:12.745Z,16.20
2018-02-02T18:35:39.944Z,16.10
2018-02-02T18:38:07.069Z,16.20
2018-02-02T18:40:34.980Z,16.20
2018-02-02T18:43:02.124Z,16.20
2018-02-02T18:45:29.284Z,16.10
2018-02-02T18:47:56.457Z,16.10
2018-02-02T18:50:23.998Z,16.10
2018-02-02T18:52:51.168Z,16.10
2018-02-02T18:55:18.303Z,16.10
2018-02-02T18:57:45.492Z,16.10
2018-02-02T19:00:12.624Z,16.00
2018-02-02T19:02:39.757Z,16.10
2018-02-02T19:05:06.906Z,16.10
2018-02-02T19:07:34.052Z,16.00
2018-02-02T19:10:01.192Z,16.00
2018-02-02T19:12:28.332Z,16.00
2018-02-02T19:14:55.504Z,15.90
2018-02-02T19:17:22.638Z,15.90
2018-02-02T19:19:49.774Z,15.90
2018-02-02T19:22:17.677Z,16.00
2018-02-02T19:24:44.856Z,16.00
2018-02-02T19:27:11.989Z,16.00
2018-02-02T19:29:39.130Z,16.00
2018-02-02T19:32:06.329Z,15.90
2018-02-02T19:34:34.238Z,16.00
2018-02-02T19:37:01.372Z,16.00
2018-02-02T19:39:28.501Z,16.00
2018-02-02T19:41:56.518Z,15.90
2018-02-02T19:44:23.656Z,15.90
2018-02-02T19:46:50.825Z,15.90
2018-02-02T19:49:17.968Z,15.90
2018-02-02T19:51:45.104Z,15.90
2018-02-02T19:54:12.294Z,15.90
2018-02-02T19:56:39.425Z,16.00
2018-02-02T19:59:06.569Z,16.10
2018-02-02T20:01:33.711Z,16.20
2018-02-02T20:04:00.849Z,16.20
2018-02-02T20:06:27.975Z,16.20
2018-02-02T20:08:55.117Z,16.30
2018-02-02T20:11:22.253Z,16.20
2018-02-02T20:13:49.389Z,16.20
2018-02-02T20:16:16.533Z,16.20
2018-02-02T20:18:43.667Z,16.20
2018-02-02T20:21:10.800Z,16.20
2018-02-02T20:23:38.729Z,16.20
2018-02-02T20:26:06.563Z,16.20
2018-02-02T20:28:33.725Z,16.20
2018-02-02T20:31:00.893Z,16.20
2018-02-02T20:33:28.028Z,16.10
2018-02-02T20:35:55.244Z,16.10
2018-02-02T20:38:23.181Z,16.10
2018-02-02T20:40:50.321Z,16.10
2018-02-02T20:43:17.473Z,16.10
2018-02-02T20:45:44.640Z,16.10
2018-02-02T20:48:11.774Z,16.00
2018-02-02T20:50:39.036Z,16.00
2018-02-02T20:53:11.178Z,16.00
2018-02-02T20:55:38.376Z,15.90
2018-02-02T20:58:05.557Z,15.90
2018-02-02T21:00:34.498Z,16.00
2018-02-02T21:03:01.643Z,16.00
2018-02-02T21:05:28.813Z,16.00
2018-02-02T21:07:55.954Z,15.90
2018-02-02T21:10:23.281Z,15.90
2018-02-02T21:12:50.449Z,15.90
2018-02-02T21:15:17.592Z,15.90
2018-02-02T21:17:44.813Z,15.90
2018-02-02T21:20:12.718Z,16.00
2018-02-02T21:22:39.922Z,16.00
2018-02-02T21:25:07.827Z,15.90
2018-02-02T21:27:35.670Z,15.90
2018-02-02T21:30:03.613Z,15.90
2018-02-02T21:32:31.545Z,15.90
2018-02-02T21:34:58.825Z,15.90
2018-02-02T21:37:26.050Z,15.90
2018-02-02T21:39:53.283Z,15.90
2018-02-02T21:42:21.386Z,15.90
2018-02-02T21:44:48.552Z,15.80
2018-02-02T21:47:15.696Z,15.80
2018-02-02T21:49:43.509Z,15.80
2018-02-02T21:52:11.420Z,15.90
2018-02-02T21:54:38.556Z,15.90
2018-02-02T21:57:05.883Z,16.00
2018-02-02T21:59:33.083Z,16.10
2018-02-02T22:02:00.263Z,16.10
2018-02-02T22:04:27.404Z,16.20
2018-02-02T22:06:54.590Z,16.20
2018-02-02T22:09:22.515Z,16.10
2018-02-02T22:11:49.697Z,16.10
2018-02-02T22:14:17.630Z,16.10
2018-02-02T22:16:44.775Z,16.00
2018-02-02T22:19:11.933Z,16.10
2018-02-02T22:21:39.120Z,16.10
2018-02-02T22:24:07.031Z,16.10
2018-02-02T22:26:34.695Z,16.10
2018-02-02T22:29:01.891Z,16.10
2018-02-02T22:31:29.020Z,16.10
2018-02-02T22:33:56.161Z,16.00
2018-02-02T22:36:23.297Z,16.10
2018-02-02T22:38:50.469Z,16.00
2018-02-02T22:41:17.602Z,15.90
2018-02-02T22:43:44.757Z,15.90
2018-02-02T22:46:11.930Z,15.90
2018-02-02T22:48:39.061Z,16.00
2018-02-02T22:51:06.945Z,16.00
2018-02-02T22:53:34.094Z,15.90
2018-02-02T22:56:01.397Z,15.90
2018-02-02T22:58:29.415Z,16.00
2018-02-02T23:00:56.739Z,16.00
2018-02-02T23:03:24.252Z,16.00
2018-02-02T23:05:52.643Z,16.00
2018-02-02T23:08:20.788Z,16.00
2018-02-02T23:10:47.920Z,16.00
2018-02-02T23:13:15.074Z,15.90
2018-02-02T23:15:42.217Z,15.90
2018-02-02T23:18:09.362Z,16.00
2018-02-02T23:20:36.493Z,16.00
2018-02-02T23:23:03.623Z,16.00
2018-02-02T23:25:31.538Z,16.00
2018-02-02T23:27:58.684Z,16.00
2018-02-02T23:30:26.767Z,16.00
2018-02-02T23:32:53.916Z,16.00
2018-02-02T23:35:22.717Z,16.00
2018-02-02T23:37:49.904Z,16.00
2018-02-02T23:40:17.045Z,16.00
2018-02-02T23:42:44.272Z,16.00
2018-02-02T23:45:11.403Z,16.00
2018-02-02T23:47:38.541Z,16.00
2018-02-02T23:50:05.726Z,16.00
2018-02-02T23:52:32.861Z,16.00
2018-02-02T23:55:00.017Z,16.00
2018-02-02T23:57:27.203Z,16.00
2018-02-02T23:59:54.381Z,16.00
